Costa Fortuna — IBNY — position and weather

sailwx.info

Track history (hours):
 
Tides and Currents Weather Stations Pressure Air Temp Water Temp Dewpoint Dewpoint Depression Visibility Wind Speed Wind Dir Waves Ship Positions

Costa Fortuna

Last reported at 2019-Jan-22 14:04 UTC. Time now 2019-Jan-24 06:28 UTC.
Position N 01°16' E 104°14'.

Length 272 m; draft 8.3 m.

Type: Ship. MMSI: 247094800.

Date/timePositionNaut miles runAvg speedWind from/ knotsBaromVisibWave heightAir tempDewpointWater temp
2019-Jan-22 14:04N 01°16' E 104°14'415.7
2019-Jan-22 13:50N 01°16' E 104°10'816.2
2019-Jan-22 13:20N 01°15' E 104°02'615.9
2019-Jan-22 12:59N 01°14' E 103°56'5 9.7
2019-Jan-22 12:30N 01°14' E 103°52'2 3.6
2019-Jan-22 11:59N 01°16' E 103°52'0 0.0
2019-Jan-22 11:30N 01°16' E 103°52'0 0.0
2019-Jan-22 10:57N 01°16' E 103°52'0 0.0
2019-Jan-22 10:30N 01°16' E 103°52'0 0.0
2019-Jan-22 10:00N 01°16' E 103°52'0 0.0
2019-Jan-22 09:30N 01°16' E 103°52'0 0.0
2019-Jan-22 08:57N 01°16' E 103°52'0 0.0
2019-Jan-22 08:30N 01°16' E 103°52'0 0.0
2019-Jan-22 07:57N 01°16' E 103°52'0 0.0
2019-Jan-22 07:30N 01°16' E 103°52'0 0.0
2019-Jan-22 07:00N 01°16' E 103°52'0 0.0
2019-Jan-22 06:30N 01°16' E 103°52'0 0.0
2019-Jan-22 06:00N 01°16' E 103°52'0 0.0
2019-Jan-22 05:30N 01°16' E 103°52'0 0.0
2019-Jan-22 05:00N 01°16' E 103°52'0 0.0
2019-Jan-22 04:30N 01°16' E 103°52'0 0.0
2019-Jan-22 04:00N 01°16' E 103°52'0 0.0
2019-Jan-22 03:30N 01°16' E 103°52'0 0.0
2019-Jan-22 02:27N 01°16' E 103°52'0 0.0
2019-Jan-22 01:57N 01°16' E 103°52'0 0.0
2019-Jan-22 01:24N 01°16' E 103°52'0 0.0
2019-Jan-22 01:00N 01°16' E 103°52'0 0.5
2019-Jan-22 00:31N 01°16' E 103°52'3 5.7
2019-Jan-22 00:00N 01°13' E 103°53'510.6
2019-Jan-21 23:31N 01°10' E 103°48'713.8
2019-Jan-21 23:00N 01°05' E 103°43'713.3
2019-Jan-21 22:30N 01°03' E 103°37'815.1
2019-Jan-21 21:59N 01°08' E 103°31'915.0
2019-Jan-21 21:25N 01°12' E 103°23'  
2019-Jan-18 01:00N 07°54' E 098°12'11813.1 040 / 191012.010.8 28.023.912.0
2019-Jan-17 16:00N 06°12' E 099°12'118 4.9 060 / 191011.0 5.4 28.025.3
2019-Jan-16 16:00N 04°18' E 099°42'65 8.1 290 / 131012.0 1.1 27.022.8
2019-Jan-16 08:00N 03°24' E 100°18'21413.4 310 / 91012.010.8 29.025.012.0
2019-Jan-15 15:58N 01°23' E 103°16'714.0
2019-Jan-15 15:29N 01°19' E 103°20'714.7
2019-Jan-15 15:00N 01°14' E 103°26'714.3
2019-Jan-15 14:31N 01°12' E 103°32'713.9
2019-Jan-15 14:00N 01°11' E 103°39'9588.8
2019-Jan-15 14:00N 01°12' E 103°30'1632.0 360 / 121012.0 5.4 29.022.0
2019-Jan-15 13:30N 01°09' E 103°45'713.3
2019-Jan-15 13:00N 01°12' E 103°51'3 5.5
2019-Jan-15 12:30N 01°14' E 103°52'1 2.7
2019-Jan-15 11:58N 01°16' E 103°52'0 0.0
2019-Jan-15 11:31N 01°16' E 103°52'0 0.0
2019-Jan-15 11:01N 01°16' E 103°52'0 0.0
2019-Jan-15 10:28N 01°16' E 103°52'0 0.0
2019-Jan-15 09:58N 01°16' E 103°52'0 0.0
2019-Jan-15 09:28N 01°16' E 103°52'0 0.0
2019-Jan-15 09:01N 01°16' E 103°52'0 0.0
2019-Jan-15 08:31N 01°16' E 103°52'0 0.0
2019-Jan-15 07:58N 01°16' E 103°52'0 0.0
2019-Jan-15 07:28N 01°16' E 103°52'0 0.0
2019-Jan-15 07:01N 01°16' E 103°52'0 0.0
2019-Jan-15 06:31N 01°16' E 103°52'0 0.0
2019-Jan-15 05:58N 01°16' E 103°52'0 0.0
2019-Jan-15 05:31N 01°16' E 103°52'0 0.0
2019-Jan-15 05:01N 01°16' E 103°52'0 0.0
2019-Jan-15 04:31N 01°16' E 103°52'0 0.0
2019-Jan-15 03:58N 01°16' E 103°52'0 0.0
2019-Jan-15 03:28N 01°16' E 103°52'0 0.0
2019-Jan-15 03:01N 01°16' E 103°52'0 0.0
2019-Jan-15 02:31N 01°16' E 103°52'0 0.0
2019-Jan-15 01:58N 01°16' E 103°52'0 0.0
2019-Jan-15 01:28N 01°16' E 103°52'0 0.0
2019-Jan-15 01:01N 01°16' E 103°52'0 0.5
2019-Jan-15 00:30N 01°16' E 103°52'2 4.5
2019-Jan-15 00:00N 01°14' E 103°53'5330.4
2019-Jan-15 00:00N 01°12' E 103°48'1021.7 330 / 131012.010.8 29.025.012.0
2019-Jan-14 23:30N 01°15' E 103°58'714.1
2019-Jan-14 23:00N 01°16' E 104°05'714.2
2019-Jan-14 22:30N 01°18' E 104°12'714.2
2019-Jan-14 21:59N 01°19' E 104°19'  
Track history (hours):
 
Tides and Currents Weather Stations Pressure Air Temp Water Temp Dewpoint Dewpoint Depression Visibility Wind Speed Wind Dir Waves Ship Positions

Costa Fortuna

Last reported at 2019-Jan-22 14:04 UTC. Time now 2019-Jan-24 06:28 UTC.
Position N 01°16' E 104°14'.

Length 272 m; draft 8.3 m.

Type: Ship. MMSI: 247094800.

Date/timePositionNaut miles runAvg speedWind from/ knotsBaromVisibWave heightAir tempDewpointWater temp
2019-Jan-22 14:04N 01°16' E 104°14'415.7
2019-Jan-22 13:50N 01°16' E 104°10'816.2
2019-Jan-22 13:20N 01°15' E 104°02'615.9
2019-Jan-22 12:59N 01°14' E 103°56'5 9.7
2019-Jan-22 12:30N 01°14' E 103°52'2 3.6
2019-Jan-22 11:59N 01°16' E 103°52'0 0.0
2019-Jan-22 11:30N 01°16' E 103°52'0 0.0
2019-Jan-22 10:57N 01°16' E 103°52'0 0.0
2019-Jan-22 10:30N 01°16' E 103°52'0 0.0
2019-Jan-22 10:00N 01°16' E 103°52'0 0.0
2019-Jan-22 09:30N 01°16' E 103°52'0 0.0
2019-Jan-22 08:57N 01°16' E 103°52'0 0.0
2019-Jan-22 08:30N 01°16' E 103°52'0 0.0
2019-Jan-22 07:57N 01°16' E 103°52'0 0.0
2019-Jan-22 07:30N 01°16' E 103°52'0 0.0
2019-Jan-22 07:00N 01°16' E 103°52'0 0.0
2019-Jan-22 06:30N 01°16' E 103°52'0 0.0
2019-Jan-22 06:00N 01°16' E 103°52'0 0.0
2019-Jan-22 05:30N 01°16' E 103°52'0 0.0
2019-Jan-22 05:00N 01°16' E 103°52'0 0.0
2019-Jan-22 04:30N 01°16' E 103°52'0 0.0
2019-Jan-22 04:00N 01°16' E 103°52'0 0.0
2019-Jan-22 03:30N 01°16' E 103°52'0 0.0
2019-Jan-22 02:27N 01°16' E 103°52'0 0.0
2019-Jan-22 01:57N 01°16' E 103°52'0 0.0
2019-Jan-22 01:24N 01°16' E 103°52'0 0.0
2019-Jan-22 01:00N 01°16' E 103°52'0 0.5
2019-Jan-22 00:31N 01°16' E 103°52'3 5.7
2019-Jan-22 00:00N 01°13' E 103°53'510.6
2019-Jan-21 23:31N 01°10' E 103°48'713.8
2019-Jan-21 23:00N 01°05' E 103°43'713.3
2019-Jan-21 22:30N 01°03' E 103°37'815.1
2019-Jan-21 21:59N 01°08' E 103°31'915.0
2019-Jan-21 21:25N 01°12' E 103°23'  
2019-Jan-18 01:00N 07°54' E 098°12'11813.1 040 / 191012.010.8 28.023.912.0
2019-Jan-17 16:00N 06°12' E 099°12'118 4.9 060 / 191011.0 5.4 28.025.3
2019-Jan-16 16:00N 04°18' E 099°42'65 8.1 290 / 131012.0 1.1 27.022.8
2019-Jan-16 08:00N 03°24' E 100°18'21413.4 310 / 91012.010.8 29.025.012.0
2019-Jan-15 15:58N 01°23' E 103°16'714.0
2019-Jan-15 15:29N 01°19' E 103°20'714.7
2019-Jan-15 15:00N 01°14' E 103°26'714.3
2019-Jan-15 14:31N 01°12' E 103°32'713.9
2019-Jan-15 14:00N 01°11' E 103°39'9588.8
2019-Jan-15 14:00N 01°12' E 103°30'1632.0 360 / 121012.0 5.4 29.022.0
2019-Jan-15 13:30N 01°09' E 103°45'713.3
2019-Jan-15 13:00N 01°12' E 103°51'3 5.5
2019-Jan-15 12:30N 01°14' E 103°52'1 2.7
2019-Jan-15 11:58N 01°16' E 103°52'0 0.0
2019-Jan-15 11:31N 01°16' E 103°52'0 0.0
2019-Jan-15 11:01N 01°16' E 103°52'0 0.0
2019-Jan-15 10:28N 01°16' E 103°52'0 0.0
2019-Jan-15 09:58N 01°16' E 103°52'0 0.0
2019-Jan-15 09:28N 01°16' E 103°52'0 0.0
2019-Jan-15 09:01N 01°16' E 103°52'0 0.0
2019-Jan-15 08:31N 01°16' E 103°52'0 0.0
2019-Jan-15 07:58N 01°16' E 103°52'0 0.0
2019-Jan-15 07:28N 01°16' E 103°52'0 0.0
2019-Jan-15 07:01N 01°16' E 103°52'0 0.0
2019-Jan-15 06:31N 01°16' E 103°52'0 0.0
2019-Jan-15 05:58N 01°16' E 103°52'0 0.0
2019-Jan-15 05:31N 01°16' E 103°52'0 0.0
2019-Jan-15 05:01N 01°16' E 103°52'0 0.0
2019-Jan-15 04:31N 01°16' E 103°52'0 0.0
2019-Jan-15 03:58N 01°16' E 103°52'0 0.0
2019-Jan-15 03:28N 01°16' E 103°52'0 0.0
2019-Jan-15 03:01N 01°16' E 103°52'0 0.0
2019-Jan-15 02:31N 01°16' E 103°52'0 0.0
2019-Jan-15 01:58N 01°16' E 103°52'0 0.0
2019-Jan-15 01:28N 01°16' E 103°52'0 0.0
2019-Jan-15 01:01N 01°16' E 103°52'0 0.5
2019-Jan-15 00:30N 01°16' E 103°52'2 4.5
2019-Jan-15 00:00N 01°14' E 103°53'5330.4
2019-Jan-15 00:00N 01°12' E 103°48'1021.7 330 / 131012.010.8 29.025.012.0
2019-Jan-14 23:30N 01°15' E 103°58'714.1
2019-Jan-14 23:00N 01°16' E 104°05'714.2
2019-Jan-14 22:30N 01°18' E 104°12'714.2
2019-Jan-14 21:59N 01°19' E 104°19'  

Dump ship's entire track history